Current Conditions
Partly Cloudy
Conditions



Pressure
29.92 (inHG) - 1013.21 (mb)
Visibility

10.0 (miles) - 16.1 (km)
Temperature
68  °F
Temperature
59  °F
Dewpoint
73  %
 Humidity
Wind Speed
6  mph
5  kts
10  km/h
2.7  m/s
Wind Direction
N
45°
E
90°
135°
S
180°
225°
W
270°
315°
 190°

Due South
Airport Data
MMLP
Manuel Márquez de León International Airport
Metar :MMLP 231342Z 19005KT 10SM FEW100 20/15 A2992 RMK 8/030 HZY ISOL CI
Sun 23rd June 06:42 am
Raw Metar Info
Raw METAR is the most common format in the world for the transmission of observational weather data. It is highly standardized through the International Civil Aviation Organization (ICAO), which allows it to be understood throughout most of the world.
API Info
Data Provided by
https://www.checkwx.com/weather/MMLP

Aviation Weather providing METAR, TAF, AIRMET, SIGMET and OUTLOOK Weather Reports
© Info
CSS/SVG/PHP scripts were developed by weather34 for use in the weather34 template © 2015-2024

Guide Info provided by Metar-Wikipedia